sensor_id;sensor_type;location;lat;lon;timestamp;P1;durP1;ratioP1;P2;durP2;ratioP2
15679;SDS011;15488;48.114;11.532;2023-05-07T00:01:18;8.33;;;6.63;;
15679;SDS011;15488;48.114;11.532;2023-05-07T00:03:46;7.17;;;6.30;;
15679;SDS011;15488;48.114;11.532;2023-05-07T00:06:15;6.80;;;6.10;;
15679;SDS011;15488;48.114;11.532;2023-05-07T00:08:43;7.90;;;6.40;;
15679;SDS011;15488;48.114;11.532;2023-05-07T00:11:10;8.43;;;6.13;;
15679;SDS011;15488;48.114;11.532;2023-05-07T00:13:37;7.67;;;6.23;;
15679;SDS011;15488;48.114;11.532;2023-05-07T00:16:05;6.77;;;5.77;;
15679;SDS011;15488;48.114;11.532;2023-05-07T00:18:32;7.00;;;5.70;;
15679;SDS011;15488;48.114;11.532;2023-05-07T00:21:00;6.87;;;6.17;;
15679;SDS011;15488;48.114;11.532;2023-05-07T00:23:29;6.37;;;5.40;;
15679;SDS011;15488;48.114;11.532;2023-05-07T00:25:56;6.10;;;5.50;;
15679;SDS011;15488;48.114;11.532;2023-05-07T00:28:23;7.53;;;6.20;;
15679;SDS011;15488;48.114;11.532;2023-05-07T00:30:51;7.30;;;5.90;;
15679;SDS011;15488;48.114;11.532;2023-05-07T00:33:18;7.50;;;5.80;;
15679;SDS011;15488;48.114;11.532;2023-05-07T00:35:47;6.43;;;5.83;;
15679;SDS011;15488;48.114;11.532;2023-05-07T00:38:15;7.60;;;6.03;;
15679;SDS011;15488;48.114;11.532;2023-05-07T00:40:43;5.73;;;5.23;;
15679;SDS011;15488;48.114;11.532;2023-05-07T00:43:11;7.83;;;5.53;;
15679;SDS011;15488;48.114;11.532;2023-05-07T00:45:39;6.67;;;5.07;;
15679;SDS011;15488;48.114;11.532;2023-05-07T00:48:06;5.73;;;5.23;;
15679;SDS011;15488;48.114;11.532;2023-05-07T00:50:34;5.20;;;4.70;;
15679;SDS011;15488;48.114;11.532;2023-05-07T00:53:01;6.17;;;5.13;;
15679;SDS011;15488;48.114;11.532;2023-05-07T00:55:30;7.50;;;5.37;;
15679;SDS011;15488;48.114;11.532;2023-05-07T00:57:59;6.13;;;5.07;;
15679;SDS011;15488;48.114;11.532;2023-05-07T01:00:26;5.30;;;4.60;;
15679;SDS011;15488;48.114;11.532;2023-05-07T01:02:54;5.07;;;4.60;;
15679;SDS011;15488;48.114;11.532;2023-05-07T01:05:21;5.27;;;4.77;;
15679;SDS011;15488;48.114;11.532;2023-05-07T01:07:51;5.67;;;4.90;;
15679;SDS011;15488;48.114;11.532;2023-05-07T01:10:21;5.70;;;5.10;;
15679;SDS011;15488;48.114;11.532;2023-05-07T01:12:49;6.30;;;5.70;;
15679;SDS011;15488;48.114;11.532;2023-05-07T01:15:19;6.17;;;5.57;;
15679;SDS011;15488;48.114;11.532;2023-05-07T01:17:46;6.13;;;5.53;;
15679;SDS011;15488;48.114;11.532;2023-05-07T01:20:14;6.13;;;4.90;;
15679;SDS011;15488;48.114;11.532;2023-05-07T01:22:43;5.30;;;4.60;;
15679;SDS011;15488;48.114;11.532;2023-05-07T01:25:11;5.73;;;4.80;;
15679;SDS011;15488;48.114;11.532;2023-05-07T01:27:38;5.57;;;5.07;;
15679;SDS011;15488;48.114;11.532;2023-05-07T01:30:06;5.30;;;4.80;;
15679;SDS011;15488;48.114;11.532;2023-05-07T01:32:35;5.00;;;4.50;;
15679;SDS011;15488;48.114;11.532;2023-05-07T01:35:05;5.30;;;4.80;;
15679;SDS011;15488;48.114;11.532;2023-05-07T01:37:37;5.70;;;5.13;;
15679;SDS011;15488;48.114;11.532;2023-05-07T01:40:07;5.97;;;5.37;;
15679;SDS011;15488;48.114;11.532;2023-05-07T01:42:35;5.30;;;4.77;;
15679;SDS011;15488;48.114;11.532;2023-05-07T01:45:03;7.00;;;4.93;;
15679;SDS011;15488;48.114;11.532;2023-05-07T01:47:31;5.23;;;4.73;;
15679;SDS011;15488;48.114;11.532;2023-05-07T01:49:59;5.43;;;4.90;;
15679;SDS011;15488;48.114;11.532;2023-05-07T01:52:27;5.70;;;4.87;;
15679;SDS011;15488;48.114;11.532;2023-05-07T01:54:55;5.67;;;5.10;;
15679;SDS011;15488;48.114;11.532;2023-05-07T01:57:24;5.60;;;5.00;;
15679;SDS011;15488;48.114;11.532;2023-05-07T01:59:51;5.33;;;4.70;;
15679;SDS011;15488;48.114;11.532;2023-05-07T02:02:18;5.30;;;4.63;;
15679;SDS011;15488;48.114;11.532;2023-05-07T02:04:46;4.67;;;4.20;;
15679;SDS011;15488;48.114;11.532;2023-05-07T02:07:13;6.40;;;4.50;;
15679;SDS011;15488;48.114;11.532;2023-05-07T02:09:41;5.43;;;4.93;;
15679;SDS011;15488;48.114;11.532;2023-05-07T02:12:08;4.90;;;4.40;;
15679;SDS011;15488;48.114;11.532;2023-05-07T02:14:37;5.17;;;4.60;;
15679;SDS011;15488;48.114;11.532;2023-05-07T02:17:04;4.80;;;4.30;;
15679;SDS011;15488;48.114;11.532;2023-05-07T02:19:32;4.90;;;4.40;;
15679;SDS011;15488;48.114;11.532;2023-05-07T02:22:00;5.57;;;4.00;;
15679;SDS011;15488;48.114;11.532;2023-05-07T02:24:27;5.43;;;4.20;;
15679;SDS011;15488;48.114;11.532;2023-05-07T02:26:55;5.27;;;4.20;;
15679;SDS011;15488;48.114;11.532;2023-05-07T02:29:22;4.67;;;4.27;;
15679;SDS011;15488;48.114;11.532;2023-05-07T02:31:51;4.80;;;4.27;;
15679;SDS011;15488;48.114;11.532;2023-05-07T02:34:18;5.07;;;4.50;;
15679;SDS011;15488;48.114;11.532;2023-05-07T02:36:46;5.97;;;4.20;;
15679;SDS011;15488;48.114;11.532;2023-05-07T02:39:13;5.57;;;4.20;;
15679;SDS011;15488;48.114;11.532;2023-05-07T02:41:41;4.80;;;4.27;;
15679;SDS011;15488;48.114;11.532;2023-05-07T02:44:09;4.43;;;4.03;;
15679;SDS011;15488;48.114;11.532;2023-05-07T02:46:36;4.20;;;3.90;;
15679;SDS011;15488;48.114;11.532;2023-05-07T02:49:05;5.17;;;3.93;;
15679;SDS011;15488;48.114;11.532;2023-05-07T02:51:32;4.60;;;4.07;;
15679;SDS011;15488;48.114;11.532;2023-05-07T02:54:00;5.63;;;4.37;;
15679;SDS011;15488;48.114;11.532;2023-05-07T02:56:27;5.33;;;3.97;;
15679;SDS011;15488;48.114;11.532;2023-05-07T02:58:55;4.67;;;4.13;;
15679;SDS011;15488;48.114;11.532;2023-05-07T03:01:22;4.70;;;4.13;;
15679;SDS011;15488;48.114;11.532;2023-05-07T03:03:50;4.37;;;4.00;;
15679;SDS011;15488;48.114;11.532;2023-05-07T03:06:19;4.40;;;3.90;;
15679;SDS011;15488;48.114;11.532;2023-05-07T03:08:46;5.07;;;3.80;;
15679;SDS011;15488;48.114;11.532;2023-05-07T03:11:14;4.00;;;3.70;;
15679;SDS011;15488;48.114;11.532;2023-05-07T03:13:41;4.03;;;3.73;;
15679;SDS011;15488;48.114;11.532;2023-05-07T03:16:08;4.40;;;4.00;;
15679;SDS011;15488;48.114;11.532;2023-05-07T03:18:36;4.33;;;3.87;;
15679;SDS011;15488;48.114;11.532;2023-05-07T03:21:03;4.50;;;4.10;;
15679;SDS011;15488;48.114;11.532;2023-05-07T03:23:32;4.17;;;3.77;;
15679;SDS011;15488;48.114;11.532;2023-05-07T03:26:00;4.17;;;3.77;;
15679;SDS011;15488;48.114;11.532;2023-05-07T03:28:27;4.20;;;3.80;;
15679;SDS011;15488;48.114;11.532;2023-05-07T03:30:55;4.23;;;3.90;;
15679;SDS011;15488;48.114;11.532;2023-05-07T03:33:22;7.10;;;3.90;;
15679;SDS011;15488;48.114;11.532;2023-05-07T03:35:50;4.73;;;3.83;;
15679;SDS011;15488;48.114;11.532;2023-05-07T03:38:17;4.40;;;4.00;;
15679;SDS011;15488;48.114;11.532;2023-05-07T03:40:46;4.30;;;3.90;;
15679;SDS011;15488;48.114;11.532;2023-05-07T03:43:13;4.20;;;3.80;;
15679;SDS011;15488;48.114;11.532;2023-05-07T03:45:41;4.70;;;3.70;;
15679;SDS011;15488;48.114;11.532;2023-05-07T03:48:09;4.40;;;4.00;;
15679;SDS011;15488;48.114;11.532;2023-05-07T03:50:37;4.00;;;3.70;;
15679;SDS011;15488;48.114;11.532;2023-05-07T03:53:04;4.43;;;3.60;;
15679;SDS011;15488;48.114;11.532;2023-05-07T03:55:32;4.70;;;3.60;;
15679;SDS011;15488;48.114;11.532;2023-05-07T03:58:02;3.90;;;3.60;;
15679;SDS011;15488;48.114;11.532;2023-05-07T04:00:29;4.70;;;3.53;;
15679;SDS011;15488;48.114;11.532;2023-05-07T04:02:58;4.27;;;3.57;;
15679;SDS011;15488;48.114;11.532;2023-05-07T04:05:26;4.20;;;3.80;;
15679;SDS011;15488;48.114;11.532;2023-05-07T04:07:53;3.90;;;3.60;;
15679;SDS011;15488;48.114;11.532;2023-05-07T04:10:21;4.57;;;3.90;;
15679;SDS011;15488;48.114;11.532;2023-05-07T04:12:48;3.80;;;3.50;;
15679;SDS011;15488;48.114;11.532;2023-05-07T04:15:17;4.17;;;3.80;;
15679;SDS011;15488;48.114;11.532;2023-05-07T04:17:44;4.43;;;3.60;;
15679;SDS011;15488;48.114;11.532;2023-05-07T04:20:13;4.67;;;3.70;;
15679;SDS011;15488;48.114;11.532;2023-05-07T04:22:42;4.37;;;3.53;;
15679;SDS011;15488;48.114;11.532;2023-05-07T04:25:09;4.00;;;3.60;;
15679;SDS011;15488;48.114;11.532;2023-05-07T04:27:37;4.17;;;3.63;;
15679;SDS011;15488;48.114;11.532;2023-05-07T04:30:05;4.33;;;3.80;;
15679;SDS011;15488;48.114;11.532;2023-05-07T04:32:34;4.17;;;3.37;;
15679;SDS011;15488;48.114;11.532;2023-05-07T04:35:02;4.10;;;3.80;;
15679;SDS011;15488;48.114;11.532;2023-05-07T04:37:31;4.00;;;3.70;;
15679;SDS011;15488;48.114;11.532;2023-05-07T04:39:58;4.17;;;3.70;;
15679;SDS011;15488;48.114;11.532;2023-05-07T04:42:26;3.97;;;3.67;;
15679;SDS011;15488;48.114;11.532;2023-05-07T04:44:54;4.57;;;3.80;;
15679;SDS011;15488;48.114;11.532;2023-05-07T04:47:22;5.17;;;3.90;;
15679;SDS011;15488;48.114;11.532;2023-05-07T04:49:51;4.33;;;3.60;;
15679;SDS011;15488;48.114;11.532;2023-05-07T04:52:18;4.60;;;3.60;;
15679;SDS011;15488;48.114;11.532;2023-05-07T04:54:45;4.30;;;3.90;;
15679;SDS011;15488;48.114;11.532;2023-05-07T04:57:13;4.23;;;3.83;;
15679;SDS011;15488;48.114;11.532;2023-05-07T04:59:42;4.07;;;3.77;;
15679;SDS011;15488;48.114;11.532;2023-05-07T05:02:09;3.83;;;3.47;;
15679;SDS011;15488;48.114;11.532;2023-05-07T05:04:37;4.33;;;3.60;;
15679;SDS011;15488;48.114;11.532;2023-05-07T05:07:06;4.07;;;3.70;;
15679;SDS011;15488;48.114;11.532;2023-05-07T05:09:33;4.10;;;3.70;;
15679;SDS011;15488;48.114;11.532;2023-05-07T05:12:01;4.50;;;4.10;;
15679;SDS011;15488;48.114;11.532;2023-05-07T05:14:28;4.00;;;3.70;;
15679;SDS011;15488;48.114;11.532;2023-05-07T05:16:56;4.20;;;3.80;;
15679;SDS011;15488;48.114;11.532;2023-05-07T05:19:23;4.20;;;3.80;;
15679;SDS011;15488;48.114;11.532;2023-05-07T05:21:51;4.97;;;4.07;;
15679;SDS011;15488;48.114;11.532;2023-05-07T05:24:19;4.07;;;3.77;;
15679;SDS011;15488;48.114;11.532;2023-05-07T05:26:47;4.33;;;3.90;;
15679;SDS011;15488;48.114;11.532;2023-05-07T05:29:14;4.57;;;4.13;;
15679;SDS011;15488;48.114;11.532;2023-05-07T05:31:42;4.63;;;4.10;;
15679;SDS011;15488;48.114;11.532;2023-05-07T05:34:09;4.50;;;4.10;;
15679;SDS011;15488;48.114;11.532;2023-05-07T05:36:37;4.50;;;4.00;;
15679;SDS011;15488;48.114;11.532;2023-05-07T05:39:04;4.70;;;3.80;;
15679;SDS011;15488;48.114;11.532;2023-05-07T05:41:33;4.20;;;3.90;;
15679;SDS011;15488;48.114;11.532;2023-05-07T05:44:00;4.10;;;3.67;;
15679;SDS011;15488;48.114;11.532;2023-05-07T05:46:28;4.93;;;3.47;;
15679;SDS011;15488;48.114;11.532;2023-05-07T05:48:55;3.80;;;3.50;;
15679;SDS011;15488;48.114;11.532;2023-05-07T05:51:23;3.77;;;3.47;;
15679;SDS011;15488;48.114;11.532;2023-05-07T05:53:51;3.93;;;3.57;;
15679;SDS011;15488;48.114;11.532;2023-05-07T05:56:19;4.10;;;3.67;;
15679;SDS011;15488;48.114;11.532;2023-05-07T05:58:48;4.17;;;3.77;;
15679;SDS011;15488;48.114;11.532;2023-05-07T06:01:15;4.07;;;3.67;;
15679;SDS011;15488;48.114;11.532;2023-05-07T06:03:44;4.70;;;3.70;;
15679;SDS011;15488;48.114;11.532;2023-05-07T06:06:11;3.63;;;3.33;;
15679;SDS011;15488;48.114;11.532;2023-05-07T06:08:40;3.97;;;3.57;;
15679;SDS011;15488;48.114;11.532;2023-05-07T06:11:08;3.97;;;3.60;;
15679;SDS011;15488;48.114;11.532;2023-05-07T06:13:35;4.50;;;3.63;;
15679;SDS011;15488;48.114;11.532;2023-05-07T06:16:05;3.63;;;3.30;;
15679;SDS011;15488;48.114;11.532;2023-05-07T06:18:33;3.40;;;3.10;;
15679;SDS011;15488;48.114;11.532;2023-05-07T06:21:01;4.50;;;4.10;;
15679;SDS011;15488;48.114;11.532;2023-05-07T06:23:28;4.10;;;3.70;;
15679;SDS011;15488;48.114;11.532;2023-05-07T06:25:56;4.37;;;3.50;;
15679;SDS011;15488;48.114;11.532;2023-05-07T06:28:23;3.50;;;3.20;;
15679;SDS011;15488;48.114;11.532;2023-05-07T06:30:51;3.90;;;3.50;;
15679;SDS011;15488;48.114;11.532;2023-05-07T06:33:20;3.70;;;3.33;;
15679;SDS011;15488;48.114;11.532;2023-05-07T06:35:47;3.87;;;3.57;;
15679;SDS011;15488;48.114;11.532;2023-05-07T06:38:14;3.80;;;3.50;;
15679;SDS011;15488;48.114;11.532;2023-05-07T06:40:42;4.40;;;4.00;;
15679;SDS011;15488;48.114;11.532;2023-05-07T06:43:09;3.60;;;3.30;;
15679;SDS011;15488;48.114;11.532;2023-05-07T06:45:37;3.70;;;3.40;;
15679;SDS011;15488;48.114;11.532;2023-05-07T06:48:04;5.23;;;4.70;;
15679;SDS011;15488;48.114;11.532;2023-05-07T06:50:33;5.40;;;4.57;;
15679;SDS011;15488;48.114;11.532;2023-05-07T06:53:01;4.40;;;3.87;;
15679;SDS011;15488;48.114;11.532;2023-05-07T06:55:28;3.90;;;3.50;;
15679;SDS011;15488;48.114;11.532;2023-05-07T06:57:56;3.57;;;3.27;;
15679;SDS011;15488;48.114;11.532;2023-05-07T07:00:26;4.27;;;3.10;;
15679;SDS011;15488;48.114;11.532;2023-05-07T07:02:53;4.40;;;3.83;;
15679;SDS011;15488;48.114;11.532;2023-05-07T07:05:20;3.00;;;2.80;;
15679;SDS011;15488;48.114;11.532;2023-05-07T07:07:49;3.20;;;2.93;;
15679;SDS011;15488;48.114;11.532;2023-05-07T07:10:18;5.20;;;3.40;;
15679;SDS011;15488;48.114;11.532;2023-05-07T07:12:46;2.97;;;2.77;;
15679;SDS011;15488;48.114;11.532;2023-05-07T07:15:13;3.10;;;2.90;;
15679;SDS011;15488;48.114;11.532;2023-05-07T07:17:41;3.47;;;3.17;;
15679;SDS011;15488;48.114;11.532;2023-05-07T07:20:09;2.97;;;2.73;;
15679;SDS011;15488;48.114;11.532;2023-05-07T07:22:37;3.27;;;2.97;;
15679;SDS011;15488;48.114;11.532;2023-05-07T07:25:06;3.90;;;3.50;;
15679;SDS011;15488;48.114;11.532;2023-05-07T07:27:36;3.33;;;3.03;;
15679;SDS011;15488;48.114;11.532;2023-05-07T07:30:05;5.03;;;3.00;;
15679;SDS011;15488;48.114;11.532;2023-05-07T07:32:33;3.20;;;2.90;;
15679;SDS011;15488;48.114;11.532;2023-05-07T07:35:01;2.93;;;2.73;;
15679;SDS011;15488;48.114;11.532;2023-05-07T07:37:29;3.57;;;3.27;;
15679;SDS011;15488;48.114;11.532;2023-05-07T07:39:57;3.17;;;2.87;;
15679;SDS011;15488;48.114;11.532;2023-05-07T07:42:26;3.17;;;2.87;;
15679;SDS011;15488;48.114;11.532;2023-05-07T07:44:54;3.37;;;2.60;;
15679;SDS011;15488;48.114;11.532;2023-05-07T07:47:22;3.30;;;3.00;;
15679;SDS011;15488;48.114;11.532;2023-05-07T07:49:49;3.00;;;2.63;;
15679;SDS011;15488;48.114;11.532;2023-05-07T07:52:16;3.37;;;3.00;;
15679;SDS011;15488;48.114;11.532;2023-05-07T07:54:45;3.20;;;2.90;;
15679;SDS011;15488;48.114;11.532;2023-05-07T07:57:12;4.10;;;3.70;;
15679;SDS011;15488;48.114;11.532;2023-05-07T07:59:41;4.43;;;3.60;;
15679;SDS011;15488;48.114;11.532;2023-05-07T08:02:08;3.37;;;3.07;;
15679;SDS011;15488;48.114;11.532;2023-05-07T08:04:36;3.70;;;3.30;;
15679;SDS011;15488;48.114;11.532;2023-05-07T08:07:03;4.40;;;4.00;;
15679;SDS011;15488;48.114;11.532;2023-05-07T08:09:31;3.83;;;3.03;;
15679;SDS011;15488;48.114;11.532;2023-05-07T08:11:58;3.23;;;2.97;;
15679;SDS011;15488;48.114;11.532;2023-05-07T08:14:26;2.87;;;2.67;;
15679;SDS011;15488;48.114;11.532;2023-05-07T08:16:56;3.00;;;2.80;;
15679;SDS011;15488;48.114;11.532;2023-05-07T08:19:23;3.77;;;2.60;;
15679;SDS011;15488;48.114;11.532;2023-05-07T08:21:51;2.97;;;2.73;;
15679;SDS011;15488;48.114;11.532;2023-05-07T08:24:18;3.50;;;3.07;;
15679;SDS011;15488;48.114;11.532;2023-05-07T08:26:45;3.20;;;2.90;;
15679;SDS011;15488;48.114;11.532;2023-05-07T08:29:13;3.10;;;2.77;;
15679;SDS011;15488;48.114;11.532;2023-05-07T08:31:40;3.77;;;3.37;;
15679;SDS011;15488;48.114;11.532;2023-05-07T08:34:09;3.50;;;3.20;;
15679;SDS011;15488;48.114;11.532;2023-05-07T08:36:36;4.83;;;3.03;;
15679;SDS011;15488;48.114;11.532;2023-05-07T08:39:06;3.30;;;3.00;;
15679;SDS011;15488;48.114;11.532;2023-05-07T08:41:34;2.77;;;2.57;;
15679;SDS011;15488;48.114;11.532;2023-05-07T08:44:02;3.03;;;2.53;;
15679;SDS011;15488;48.114;11.532;2023-05-07T08:46:32;2.80;;;2.60;;
15679;SDS011;15488;48.114;11.532;2023-05-07T08:49:00;3.43;;;3.13;;
15679;SDS011;15488;48.114;11.532;2023-05-07T08:51:29;3.47;;;2.60;;
15679;SDS011;15488;48.114;11.532;2023-05-07T08:53:57;2.73;;;2.53;;
15679;SDS011;15488;48.114;11.532;2023-05-07T08:56:25;3.77;;;3.33;;
15679;SDS011;15488;48.114;11.532;2023-05-07T08:58:53;3.60;;;3.30;;
15679;SDS011;15488;48.114;11.532;2023-05-07T09:01:21;3.50;;;3.07;;
15679;SDS011;15488;48.114;11.532;2023-05-07T09:03:49;3.37;;;2.63;;
15679;SDS011;15488;48.114;11.532;2023-05-07T09:06:17;3.20;;;2.90;;
15679;SDS011;15488;48.114;11.532;2023-05-07T09:08:52;2.93;;;2.67;;
15679;SDS011;15488;48.114;11.532;2023-05-07T09:11:20;3.07;;;2.37;;
15679;SDS011;15488;48.114;11.532;2023-05-07T09:13:48;2.53;;;2.33;;
15679;SDS011;15488;48.114;11.532;2023-05-07T09:16:20;2.50;;;2.30;;
15679;SDS011;15488;48.114;11.532;2023-05-07T09:18:48;2.77;;;2.53;;
15679;SDS011;15488;48.114;11.532;2023-05-07T09:21:18;3.50;;;3.20;;
15679;SDS011;15488;48.114;11.532;2023-05-07T09:23:48;4.57;;;2.33;;
15679;SDS011;15488;48.114;11.532;2023-05-07T09:26:18;2.70;;;2.50;;
15679;SDS011;15488;48.114;11.532;2023-05-07T09:28:47;2.90;;;2.40;;
15679;SDS011;15488;48.114;11.532;2023-05-07T09:31:14;2.80;;;2.60;;
15679;SDS011;15488;48.114;11.532;2023-05-07T09:33:42;3.97;;;2.63;;
15679;SDS011;15488;48.114;11.532;2023-05-07T09:36:09;4.07;;;3.30;;
15679;SDS011;15488;48.114;11.532;2023-05-07T09:38:37;3.70;;;2.83;;
15679;SDS011;15488;48.114;11.532;2023-05-07T09:41:05;3.10;;;2.43;;
15679;SDS011;15488;48.114;11.532;2023-05-07T09:43:36;2.57;;;2.33;;
15679;SDS011;15488;48.114;11.532;2023-05-07T09:46:10;2.47;;;2.10;;
15679;SDS011;15488;48.114;11.532;2023-05-07T09:48:39;3.37;;;2.87;;
15679;SDS011;15488;48.114;11.532;2023-05-07T09:53:56;3.27;;;2.97;;
15679;SDS011;15488;48.114;11.532;2023-05-07T09:56:26;2.53;;;2.33;;
15679;SDS011;15488;48.114;11.532;2023-05-07T09:58:57;2.50;;;2.23;;
15679;SDS011;15488;48.114;11.532;2023-05-07T10:01:26;2.60;;;2.20;;
15679;SDS011;15488;48.114;11.532;2023-05-07T10:03:56;2.40;;;2.20;;
15679;SDS011;15488;48.114;11.532;2023-05-07T10:06:25;2.40;;;2.20;;
15679;SDS011;15488;48.114;11.532;2023-05-07T10:08:53;2.10;;;1.83;;
15679;SDS011;15488;48.114;11.532;2023-05-07T10:11:21;2.00;;;1.90;;
15679;SDS011;15488;48.114;11.532;2023-05-07T10:13:49;2.13;;;1.93;;
15679;SDS011;15488;48.114;11.532;2023-05-07T10:16:19;2.70;;;2.00;;
15679;SDS011;15488;48.114;11.532;2023-05-07T10:18:48;3.63;;;1.93;;
15679;SDS011;15488;48.114;11.532;2023-05-07T10:21:18;2.30;;;2.10;;
15679;SDS011;15488;48.114;11.532;2023-05-07T10:23:49;2.07;;;1.87;;
15679;SDS011;15488;48.114;11.532;2023-05-07T10:28:47;3.20;;;2.30;;
15679;SDS011;15488;48.114;11.532;2023-05-07T10:31:26;2.63;;;2.43;;
15679;SDS011;15488;48.114;11.532;2023-05-07T10:34:15;2.33;;;2.13;;
15679;SDS011;15488;48.114;11.532;2023-05-07T10:36:50;2.27;;;2.17;;
15679;SDS011;15488;48.114;11.532;2023-05-07T10:39:19;2.50;;;2.30;;
15679;SDS011;15488;48.114;11.532;2023-05-07T10:41:47;2.30;;;2.00;;
15679;SDS011;15488;48.114;11.532;2023-05-07T10:44:24;1.90;;;1.70;;
15679;SDS011;15488;48.114;11.532;2023-05-07T10:47:04;1.80;;;1.70;;
15679;SDS011;15488;48.114;11.532;2023-05-07T10:49:34;1.90;;;1.80;;
15679;SDS011;15488;48.114;11.532;2023-05-07T10:52:11;2.17;;;2.07;;
15679;SDS011;15488;48.114;11.532;2023-05-07T10:54:41;2.33;;;2.13;;
15679;SDS011;15488;48.114;11.532;2023-05-07T10:57:32;2.30;;;2.10;;
15679;SDS011;15488;48.114;11.532;2023-05-07T11:00:01;2.33;;;2.13;;
15679;SDS011;15488;48.114;11.532;2023-05-07T11:05:34;2.17;;;2.00;;
15679;SDS011;15488;48.114;11.532;2023-05-07T11:08:02;2.53;;;2.33;;
15679;SDS011;15488;48.114;11.532;2023-05-07T11:10:49;1.73;;;1.63;;
15679;SDS011;15488;48.114;11.532;2023-05-07T11:13:18;2.07;;;1.87;;
15679;SDS011;15488;48.114;11.532;2023-05-07T11:16:01;3.10;;;2.07;;
15679;SDS011;15488;48.114;11.532;2023-05-07T11:21:35;2.10;;;2.00;;
15679;SDS011;15488;48.114;11.532;2023-05-07T11:24:05;1.90;;;1.80;;
15679;SDS011;15488;48.114;11.532;2023-05-07T11:26:45;2.20;;;2.00;;
15679;SDS011;15488;48.114;11.532;2023-05-07T11:29:15;2.40;;;2.20;;
15679;SDS011;15488;48.114;11.532;2023-05-07T11:31:43;2.57;;;2.00;;
15679;SDS011;15488;48.114;11.532;2023-05-07T11:34:15;2.20;;;2.00;;
15679;SDS011;15488;48.114;11.532;2023-05-07T11:36:49;2.50;;;2.10;;
15679;SDS011;15488;48.114;11.532;2023-05-07T11:39:23;4.20;;;2.97;;
15679;SDS011;15488;48.114;11.532;2023-05-07T11:41:52;5.07;;;3.60;;
15679;SDS011;15488;48.114;11.532;2023-05-07T11:44:19;7.15;;;3.70;;
15679;SDS011;15488;48.114;11.532;2023-05-07T11:46:47;7.38;;;4.53;;
15679;SDS011;15488;48.114;11.532;2023-05-07T11:49:14;4.28;;;3.70;;
15679;SDS011;15488;48.114;11.532;2023-05-07T11:51:42;3.08;;;2.80;;
15679;SDS011;15488;48.114;11.532;2023-05-07T11:54:13;3.30;;;3.00;;
15679;SDS011;15488;48.114;11.532;2023-05-07T11:56:43;2.63;;;2.42;;
15679;SDS011;15488;48.114;11.532;2023-05-07T11:59:16;3.22;;;3.03;;
15679;SDS011;15488;48.114;11.532;2023-05-07T12:01:45;3.20;;;3.00;;
15679;SDS011;15488;48.114;11.532;2023-05-07T12:04:13;3.53;;;2.90;;
15679;SDS011;15488;48.114;11.532;2023-05-07T12:06:45;2.70;;;2.50;;
15679;SDS011;15488;48.114;11.532;2023-05-07T12:09:14;3.08;;;2.78;;
15679;SDS011;15488;48.114;11.532;2023-05-07T12:11:41;2.75;;;2.55;;
15679;SDS011;15488;48.114;11.532;2023-05-07T12:14:12;2.78;;;2.58;;
15679;SDS011;15488;48.114;11.532;2023-05-07T12:16:41;3.22;;;2.92;;
15679;SDS011;15488;48.114;11.532;2023-05-07T12:19:08;4.80;;;3.40;;
15679;SDS011;15488;48.114;11.532;2023-05-07T12:21:37;4.47;;;3.60;;
15679;SDS011;15488;48.114;11.532;2023-05-07T12:24:05;3.65;;;3.35;;
15679;SDS011;15488;48.114;11.532;2023-05-07T12:26:38;3.85;;;3.25;;
15679;SDS011;15488;48.114;11.532;2023-05-07T12:29:06;3.80;;;2.80;;
15679;SDS011;15488;48.114;11.532;2023-05-07T12:31:33;3.20;;;2.90;;
15679;SDS011;15488;48.114;11.532;2023-05-07T12:34:02;4.03;;;3.47;;
15679;SDS011;15488;48.114;11.532;2023-05-07T12:36:36;3.35;;;3.05;;
15679;SDS011;15488;48.114;11.532;2023-05-07T12:39:04;3.47;;;3.17;;
15679;SDS011;15488;48.114;11.532;2023-05-07T12:41:35;3.67;;;3.38;;
15679;SDS011;15488;48.114;11.532;2023-05-07T12:44:30;3.92;;;3.55;;
15679;SDS011;15488;48.114;11.532;2023-05-07T12:47:01;3.63;;;3.20;;
15679;SDS011;15488;48.114;11.532;2023-05-07T12:49:28;3.67;;;3.38;;
15679;SDS011;15488;48.114;11.532;2023-05-07T12:51:56;3.65;;;3.35;;
15679;SDS011;15488;48.114;11.532;2023-05-07T12:54:28;4.50;;;2.78;;
15679;SDS011;15488;48.114;11.532;2023-05-07T12:57:05;4.43;;;3.78;;
15679;SDS011;15488;48.114;11.532;2023-05-07T12:59:35;3.78;;;3.47;;
15679;SDS011;15488;48.114;11.532;2023-05-07T13:02:05;3.03;;;2.83;;
15679;SDS011;15488;48.114;11.532;2023-05-07T13:04:32;5.32;;;2.90;;
15679;SDS011;15488;48.114;11.532;2023-05-07T13:07:00;3.97;;;3.53;;
15679;SDS011;15488;48.114;11.532;2023-05-07T13:09:28;3.10;;;2.80;;
15679;SDS011;15488;48.114;11.532;2023-05-07T13:11:57;3.38;;;3.08;;
15679;SDS011;15488;48.114;11.532;2023-05-07T13:14:26;4.00;;;3.63;;
15679;SDS011;15488;48.114;11.532;2023-05-07T13:16:55;3.17;;;2.80;;
15679;SDS011;15488;48.114;11.532;2023-05-07T13:19:22;3.00;;;2.72;;
15679;SDS011;15488;48.114;11.532;2023-05-07T13:21:50;2.53;;;2.33;;
15679;SDS011;15488;48.114;11.532;2023-05-07T13:24:17;3.03;;;2.72;;
15679;SDS011;15488;48.114;11.532;2023-05-07T13:26:45;2.97;;;2.78;;
15679;SDS011;15488;48.114;11.532;2023-05-07T13:29:12;3.33;;;2.95;;
15679;SDS011;15488;48.114;11.532;2023-05-07T13:31:39;4.35;;;2.90;;
15679;SDS011;15488;48.114;11.532;2023-05-07T13:34:10;3.28;;;2.80;;
15679;SDS011;15488;48.114;11.532;2023-05-07T13:36:37;4.82;;;3.00;;
15679;SDS011;15488;48.114;11.532;2023-05-07T13:39:06;3.10;;;2.80;;
15679;SDS011;15488;48.114;11.532;2023-05-07T13:41:34;2.85;;;2.60;;
15679;SDS011;15488;48.114;11.532;2023-05-07T13:44:01;3.30;;;3.10;;
15679;SDS011;15488;48.114;11.532;2023-05-07T13:46:29;2.70;;;2.60;;
15679;SDS011;15488;48.114;11.532;2023-05-07T13:48:57;2.63;;;2.50;;
15679;SDS011;15488;48.114;11.532;2023-05-07T13:51:25;4.47;;;2.83;;
15679;SDS011;15488;48.114;11.532;2023-05-07T13:53:53;3.00;;;2.70;;
15679;SDS011;15488;48.114;11.532;2023-05-07T13:56:20;2.80;;;2.70;;
15679;SDS011;15488;48.114;11.532;2023-05-07T13:58:48;3.10;;;2.90;;
15679;SDS011;15488;48.114;11.532;2023-05-07T14:01:15;2.70;;;2.50;;
15679;SDS011;15488;48.114;11.532;2023-05-07T14:03:43;2.80;;;2.60;;
15679;SDS011;15488;48.114;11.532;2023-05-07T14:06:10;2.58;;;2.47;;
15679;SDS011;15488;48.114;11.532;2023-05-07T14:08:39;2.92;;;2.72;;
15679;SDS011;15488;48.114;11.532;2023-05-07T14:11:06;3.17;;;2.88;;
15679;SDS011;15488;48.114;11.532;2023-05-07T14:13:34;2.65;;;2.38;;
15679;SDS011;15488;48.114;11.532;2023-05-07T14:16:01;2.97;;;2.70;;
15679;SDS011;15488;48.114;11.532;2023-05-07T14:18:30;3.85;;;3.55;;
15679;SDS011;15488;48.114;11.532;2023-05-07T14:20:58;3.22;;;2.88;;
15679;SDS011;15488;48.114;11.532;2023-05-07T14:23:26;2.72;;;2.53;;
15679;SDS011;15488;48.114;11.532;2023-05-07T14:25:55;2.78;;;2.50;;
15679;SDS011;15488;48.114;11.532;2023-05-07T14:28:22;2.65;;;2.45;;
15679;SDS011;15488;48.114;11.532;2023-05-07T14:30:49;3.00;;;2.70;;
15679;SDS011;15488;48.114;11.532;2023-05-07T14:33:17;2.40;;;2.30;;
15679;SDS011;15488;48.114;11.532;2023-05-07T14:35:44;3.00;;;2.42;;
15679;SDS011;15488;48.114;11.532;2023-05-07T14:38:13;3.00;;;2.50;;
15679;SDS011;15488;48.114;11.532;2023-05-07T14:40:41;3.35;;;3.15;;
15679;SDS011;15488;48.114;11.532;2023-05-07T14:43:10;3.20;;;3.00;;
15679;SDS011;15488;48.114;11.532;2023-05-07T14:45:37;3.20;;;2.90;;
15679;SDS011;15488;48.114;11.532;2023-05-07T14:48:05;5.70;;;3.40;;
15679;SDS011;15488;48.114;11.532;2023-05-07T14:50:34;3.10;;;2.80;;
15679;SDS011;15488;48.114;11.532;2023-05-07T14:53:01;3.20;;;2.90;;